sensor_id;sensor_type;location;lat;lon;timestamp;P1;durP1;ratioP1;P2;durP2;ratioP2
3333;SDS011;1679;50.392;8.008;2022-07-10T00:00:17;2.50;;;2.00;;
3333;SDS011;1679;50.392;8.008;2022-07-10T00:02:45;3.93;;;2.37;;
3333;SDS011;1679;50.392;8.008;2022-07-10T00:05:11;2.93;;;1.83;;
3333;SDS011;1679;50.392;8.008;2022-07-10T00:07:37;5.30;;;2.30;;
3333;SDS011;1679;50.392;8.008;2022-07-10T00:10:03;4.27;;;1.90;;
3333;SDS011;1679;50.392;8.008;2022-07-10T00:12:29;4.17;;;2.13;;
3333;SDS011;1679;50.392;8.008;2022-07-10T00:14:54;3.97;;;2.37;;
3333;SDS011;1679;50.392;8.008;2022-07-10T00:17:20;3.43;;;2.10;;
3333;SDS011;1679;50.392;8.008;2022-07-10T00:19:46;5.20;;;2.70;;
3333;SDS011;1679;50.392;8.008;2022-07-10T00:22:11;3.00;;;2.03;;
3333;SDS011;1679;50.392;8.008;2022-07-10T00:24:37;2.60;;;2.40;;
3333;SDS011;1679;50.392;8.008;2022-07-10T00:27:03;4.53;;;2.17;;
3333;SDS011;1679;50.392;8.008;2022-07-10T00:29:29;6.10;;;2.60;;
3333;SDS011;1679;50.392;8.008;2022-07-10T00:31:54;5.43;;;1.97;;
3333;SDS011;1679;50.392;8.008;2022-07-10T00:34:20;2.80;;;1.83;;
3333;SDS011;1679;50.392;8.008;2022-07-10T00:36:45;4.43;;;2.07;;
3333;SDS011;1679;50.392;8.008;2022-07-10T00:39:11;4.03;;;2.27;;
3333;SDS011;1679;50.392;8.008;2022-07-10T00:41:37;4.43;;;2.03;;
3333;SDS011;1679;50.392;8.008;2022-07-10T00:44:03;3.50;;;2.00;;
3333;SDS011;1679;50.392;8.008;2022-07-10T00:46:29;4.03;;;2.67;;
3333;SDS011;1679;50.392;8.008;2022-07-10T00:48:55;4.07;;;2.13;;
3333;SDS011;1679;50.392;8.008;2022-07-10T00:51:23;3.20;;;2.13;;
3333;SDS011;1679;50.392;8.008;2022-07-10T00:53:50;2.30;;;2.20;;
3333;SDS011;1679;50.392;8.008;2022-07-10T00:56:18;3.87;;;2.23;;
3333;SDS011;1679;50.392;8.008;2022-07-10T00:58:46;2.40;;;2.20;;
3333;SDS011;1679;50.392;8.008;2022-07-10T01:01:13;1.90;;;1.80;;
3333;SDS011;1679;50.392;8.008;2022-07-10T01:03:39;2.40;;;2.10;;
3333;SDS011;1679;50.392;8.008;2022-07-10T01:06:05;2.43;;;2.03;;
3333;SDS011;1679;50.392;8.008;2022-07-10T01:08:32;2.93;;;2.20;;
3333;SDS011;1679;50.392;8.008;2022-07-10T01:10:58;4.10;;;2.33;;
3333;SDS011;1679;50.392;8.008;2022-07-10T01:13:24;3.07;;;2.30;;
3333;SDS011;1679;50.392;8.008;2022-07-10T01:15:49;2.23;;;2.03;;
3333;SDS011;1679;50.392;8.008;2022-07-10T01:18:16;2.97;;;2.40;;
3333;SDS011;1679;50.392;8.008;2022-07-10T01:20:42;3.30;;;2.60;;
3333;SDS011;1679;50.392;8.008;2022-07-10T01:23:08;2.60;;;2.40;;
3333;SDS011;1679;50.392;8.008;2022-07-10T01:25:33;5.27;;;2.33;;
3333;SDS011;1679;50.392;8.008;2022-07-10T01:27:59;2.33;;;2.13;;
3333;SDS011;1679;50.392;8.008;2022-07-10T01:30:25;3.23;;;2.37;;
3333;SDS011;1679;50.392;8.008;2022-07-10T01:32:51;4.53;;;2.20;;
3333;SDS011;1679;50.392;8.008;2022-07-10T01:35:20;2.90;;;2.40;;
3333;SDS011;1679;50.392;8.008;2022-07-10T01:37:45;2.60;;;2.40;;
3333;SDS011;1679;50.392;8.008;2022-07-10T01:40:11;3.70;;;2.40;;
3333;SDS011;1679;50.392;8.008;2022-07-10T01:42:38;2.63;;;2.30;;
3333;SDS011;1679;50.392;8.008;2022-07-10T01:45:05;4.70;;;2.20;;
3333;SDS011;1679;50.392;8.008;2022-07-10T01:47:31;3.20;;;2.13;;
3333;SDS011;1679;50.392;8.008;2022-07-10T01:49:57;3.63;;;2.87;;
3333;SDS011;1679;50.392;8.008;2022-07-10T01:52:22;5.07;;;2.73;;
3333;SDS011;1679;50.392;8.008;2022-07-10T01:54:48;2.97;;;2.30;;
3333;SDS011;1679;50.392;8.008;2022-07-10T01:57:14;3.37;;;2.20;;
3333;SDS011;1679;50.392;8.008;2022-07-10T01:59:40;2.43;;;2.00;;
3333;SDS011;1679;50.392;8.008;2022-07-10T02:02:07;3.50;;;1.93;;
3333;SDS011;1679;50.392;8.008;2022-07-10T02:04:33;2.27;;;1.87;;
3333;SDS011;1679;50.392;8.008;2022-07-10T02:07:12;6.03;;;2.67;;
3333;SDS011;1679;50.392;8.008;2022-07-10T02:09:42;3.40;;;1.83;;
3333;SDS011;1679;50.392;8.008;2022-07-10T02:12:08;6.57;;;2.30;;
3333;SDS011;1679;50.392;8.008;2022-07-10T02:14:35;2.73;;;2.10;;
3333;SDS011;1679;50.392;8.008;2022-07-10T02:17:01;5.10;;;1.87;;
3333;SDS011;1679;50.392;8.008;2022-07-10T02:19:28;4.17;;;2.23;;
3333;SDS011;1679;50.392;8.008;2022-07-10T02:21:53;1.70;;;1.60;;
3333;SDS011;1679;50.392;8.008;2022-07-10T02:24:19;5.17;;;2.13;;
3333;SDS011;1679;50.392;8.008;2022-07-10T02:26:44;3.50;;;1.87;;
3333;SDS011;1679;50.392;8.008;2022-07-10T02:29:10;3.00;;;1.90;;
3333;SDS011;1679;50.392;8.008;2022-07-10T02:31:36;3.43;;;2.10;;
3333;SDS011;1679;50.392;8.008;2022-07-10T02:34:06;4.97;;;1.90;;
3333;SDS011;1679;50.392;8.008;2022-07-10T02:36:32;2.90;;;1.60;;
3333;SDS011;1679;50.392;8.008;2022-07-10T02:38:58;2.50;;;1.70;;
3333;SDS011;1679;50.392;8.008;2022-07-10T02:41:23;4.53;;;1.90;;
3333;SDS011;1679;50.392;8.008;2022-07-10T02:43:49;2.30;;;1.90;;
3333;SDS011;1679;50.392;8.008;2022-07-10T02:46:14;3.70;;;2.33;;
3333;SDS011;1679;50.392;8.008;2022-07-10T02:48:40;2.03;;;1.57;;
3333;SDS011;1679;50.392;8.008;2022-07-10T02:51:05;4.50;;;1.80;;
3333;SDS011;1679;50.392;8.008;2022-07-10T02:53:31;4.50;;;1.80;;
3333;SDS011;1679;50.392;8.008;2022-07-10T02:55:57;4.80;;;2.07;;
3333;SDS011;1679;50.392;8.008;2022-07-10T02:58:22;1.93;;;1.83;;
3333;SDS011;1679;50.392;8.008;2022-07-10T03:00:48;3.00;;;1.70;;
3333;SDS011;1679;50.392;8.008;2022-07-10T03:03:13;2.00;;;1.80;;
3333;SDS011;1679;50.392;8.008;2022-07-10T03:05:42;4.17;;;1.90;;
3333;SDS011;1679;50.392;8.008;2022-07-10T03:08:08;3.93;;;1.80;;
3333;SDS011;1679;50.392;8.008;2022-07-10T03:10:33;3.73;;;2.10;;
3333;SDS011;1679;50.392;8.008;2022-07-10T03:12:59;5.50;;;2.40;;
3333;SDS011;1679;50.392;8.008;2022-07-10T03:15:25;3.13;;;2.13;;
3333;SDS011;1679;50.392;8.008;2022-07-10T03:17:50;5.10;;;2.33;;
3333;SDS011;1679;50.392;8.008;2022-07-10T03:20:16;4.50;;;1.80;;
3333;SDS011;1679;50.392;8.008;2022-07-10T03:22:42;3.43;;;2.20;;
3333;SDS011;1679;50.392;8.008;2022-07-10T03:25:07;2.60;;;1.90;;
3333;SDS011;1679;50.392;8.008;2022-07-10T03:27:33;2.40;;;2.20;;
3333;SDS011;1679;50.392;8.008;2022-07-10T03:29:59;3.00;;;1.87;;
3333;SDS011;1679;50.392;8.008;2022-07-10T03:32:24;9.40;;;2.30;;
3333;SDS011;1679;50.392;8.008;2022-07-10T03:34:50;5.53;;;2.10;;
3333;SDS011;1679;50.392;8.008;2022-07-10T03:37:16;4.67;;;2.37;;
3333;SDS011;1679;50.392;8.008;2022-07-10T03:39:41;1.90;;;1.80;;
3333;SDS011;1679;50.392;8.008;2022-07-10T03:42:07;6.20;;;1.93;;
3333;SDS011;1679;50.392;8.008;2022-07-10T03:44:32;4.83;;;2.20;;
3333;SDS011;1679;50.392;8.008;2022-07-10T03:46:58;5.37;;;2.53;;
3333;SDS011;1679;50.392;8.008;2022-07-10T03:49:23;3.00;;;1.80;;
3333;SDS011;1679;50.392;8.008;2022-07-10T03:51:49;3.50;;;2.20;;
3333;SDS011;1679;50.392;8.008;2022-07-10T03:54:15;3.57;;;2.40;;
3333;SDS011;1679;50.392;8.008;2022-07-10T03:56:40;3.87;;;2.60;;
3333;SDS011;1679;50.392;8.008;2022-07-10T03:59:25;4.67;;;2.40;;
3333;SDS011;1679;50.392;8.008;2022-07-10T04:01:50;3.97;;;2.10;;
3333;SDS011;1679;50.392;8.008;2022-07-10T04:04:16;3.10;;;2.30;;
3333;SDS011;1679;50.392;8.008;2022-07-10T04:06:41;3.07;;;2.40;;
3333;SDS011;1679;50.392;8.008;2022-07-10T04:09:07;3.77;;;2.20;;
3333;SDS011;1679;50.392;8.008;2022-07-10T04:11:33;7.50;;;2.17;;
3333;SDS011;1679;50.392;8.008;2022-07-10T04:13:58;4.33;;;2.10;;
3333;SDS011;1679;50.392;8.008;2022-07-10T04:16:24;9.80;;;1.80;;
3333;SDS011;1679;50.392;8.008;2022-07-10T04:18:49;4.60;;;1.93;;
3333;SDS011;1679;50.392;8.008;2022-07-10T04:21:15;2.40;;;1.90;;
3333;SDS011;1679;50.392;8.008;2022-07-10T04:23:41;1.80;;;1.70;;
3333;SDS011;1679;50.392;8.008;2022-07-10T04:26:06;2.60;;;2.00;;
3333;SDS011;1679;50.392;8.008;2022-07-10T04:28:32;2.30;;;2.10;;
3333;SDS011;1679;50.392;8.008;2022-07-10T04:30:57;2.63;;;1.70;;
3333;SDS011;1679;50.392;8.008;2022-07-10T04:33:23;1.97;;;1.43;;
3333;SDS011;1679;50.392;8.008;2022-07-10T04:35:50;4.93;;;1.90;;
3333;SDS011;1679;50.392;8.008;2022-07-10T04:38:15;3.10;;;1.80;;
3333;SDS011;1679;50.392;8.008;2022-07-10T04:40:41;4.50;;;1.87;;
3333;SDS011;1679;50.392;8.008;2022-07-10T04:43:07;3.97;;;1.80;;
3333;SDS011;1679;50.392;8.008;2022-07-10T04:45:35;4.20;;;1.80;;
3333;SDS011;1679;50.392;8.008;2022-07-10T04:48:02;2.40;;;1.43;;
3333;SDS011;1679;50.392;8.008;2022-07-10T04:50:30;4.63;;;1.77;;
3333;SDS011;1679;50.392;8.008;2022-07-10T04:52:56;2.33;;;1.30;;
3333;SDS011;1679;50.392;8.008;2022-07-10T04:55:22;2.20;;;1.73;;
3333;SDS011;1679;50.392;8.008;2022-07-10T04:57:48;1.97;;;1.57;;
3333;SDS011;1679;50.392;8.008;2022-07-10T05:00:13;1.87;;;1.57;;
3333;SDS011;1679;50.392;8.008;2022-07-10T05:02:39;2.27;;;1.10;;
3333;SDS011;1679;50.392;8.008;2022-07-10T05:05:05;1.93;;;1.10;;
3333;SDS011;1679;50.392;8.008;2022-07-10T05:07:31;5.90;;;2.87;;
3333;SDS011;1679;50.392;8.008;2022-07-10T05:09:57;4.60;;;2.27;;
3333;SDS011;1679;50.392;8.008;2022-07-10T05:12:22;6.27;;;1.60;;
3333;SDS011;1679;50.392;8.008;2022-07-10T05:14:48;4.47;;;1.67;;
3333;SDS011;1679;50.392;8.008;2022-07-10T05:17:13;3.30;;;1.90;;
3333;SDS011;1679;50.392;8.008;2022-07-10T05:19:39;2.80;;;1.80;;
3333;SDS011;1679;50.392;8.008;2022-07-10T05:22:04;6.03;;;1.50;;
3333;SDS011;1679;50.392;8.008;2022-07-10T05:24:30;7.33;;;1.50;;
3333;SDS011;1679;50.392;8.008;2022-07-10T05:26:55;3.40;;;2.20;;
3333;SDS011;1679;50.392;8.008;2022-07-10T05:29:21;2.17;;;1.77;;
3333;SDS011;1679;50.392;8.008;2022-07-10T05:31:46;5.10;;;2.10;;
3333;SDS011;1679;50.392;8.008;2022-07-10T05:34:12;4.57;;;1.80;;
3333;SDS011;1679;50.392;8.008;2022-07-10T05:36:38;4.67;;;1.67;;
3333;SDS011;1679;50.392;8.008;2022-07-10T05:39:03;4.70;;;2.17;;
3333;SDS011;1679;50.392;8.008;2022-07-10T05:41:29;5.97;;;1.90;;
3333;SDS011;1679;50.392;8.008;2022-07-10T05:43:57;5.30;;;2.30;;
3333;SDS011;1679;50.392;8.008;2022-07-10T05:46:23;5.73;;;1.80;;
3333;SDS011;1679;50.392;8.008;2022-07-10T05:48:49;3.03;;;1.83;;
3333;SDS011;1679;50.392;8.008;2022-07-10T05:51:14;3.93;;;1.50;;
3333;SDS011;1679;50.392;8.008;2022-07-10T05:53:40;4.07;;;1.83;;
3333;SDS011;1679;50.392;8.008;2022-07-10T05:56:06;2.07;;;1.87;;
3333;SDS011;1679;50.392;8.008;2022-07-10T05:58:31;2.73;;;1.67;;
3333;SDS011;1679;50.392;8.008;2022-07-10T06:00:57;2.33;;;1.30;;
3333;SDS011;1679;50.392;8.008;2022-07-10T06:03:22;1.50;;;1.40;;
3333;SDS011;1679;50.392;8.008;2022-07-10T06:05:49;3.27;;;1.70;;
3333;SDS011;1679;50.392;8.008;2022-07-10T06:08:14;2.50;;;1.70;;
3333;SDS011;1679;50.392;8.008;2022-07-10T06:10:40;2.43;;;1.50;;
3333;SDS011;1679;50.392;8.008;2022-07-10T06:13:08;3.67;;;2.23;;
3333;SDS011;1679;50.392;8.008;2022-07-10T06:15:35;5.00;;;1.50;;
3333;SDS011;1679;50.392;8.008;2022-07-10T06:18:00;3.33;;;1.50;;
3333;SDS011;1679;50.392;8.008;2022-07-10T06:20:26;3.53;;;1.93;;
3333;SDS011;1679;50.392;8.008;2022-07-10T06:22:52;3.03;;;1.60;;
3333;SDS011;1679;50.392;8.008;2022-07-10T06:25:17;1.70;;;1.57;;
3333;SDS011;1679;50.392;8.008;2022-07-10T06:27:43;1.73;;;1.50;;
3333;SDS011;1679;50.392;8.008;2022-07-10T06:30:09;2.90;;;1.50;;
3333;SDS011;1679;50.392;8.008;2022-07-10T06:32:35;3.43;;;1.83;;
3333;SDS011;1679;50.392;8.008;2022-07-10T06:35:01;4.70;;;1.97;;
3333;SDS011;1679;50.392;8.008;2022-07-10T06:37:27;2.77;;;1.67;;
3333;SDS011;1679;50.392;8.008;2022-07-10T06:39:52;4.00;;;1.50;;
3333;SDS011;1679;50.392;8.008;2022-07-10T06:42:18;3.70;;;1.47;;
3333;SDS011;1679;50.392;8.008;2022-07-10T06:44:44;2.40;;;1.60;;
3333;SDS011;1679;50.392;8.008;2022-07-10T06:47:10;3.90;;;2.10;;
3333;SDS011;1679;50.392;8.008;2022-07-10T06:49:56;1.97;;;1.70;;
3333;SDS011;1679;50.392;8.008;2022-07-10T06:52:21;2.10;;;1.60;;
3333;SDS011;1679;50.392;8.008;2022-07-10T06:54:47;4.70;;;2.20;;
3333;SDS011;1679;50.392;8.008;2022-07-10T06:57:14;4.23;;;2.17;;
3333;SDS011;1679;50.392;8.008;2022-07-10T06:59:40;4.40;;;1.87;;
3333;SDS011;1679;50.392;8.008;2022-07-10T07:02:06;4.70;;;2.40;;
3333;SDS011;1679;50.392;8.008;2022-07-10T07:04:32;3.57;;;2.07;;
3333;SDS011;1679;50.392;8.008;2022-07-10T07:06:57;5.10;;;2.00;;
3333;SDS011;1679;50.392;8.008;2022-07-10T07:09:23;3.23;;;1.70;;
3333;SDS011;1679;50.392;8.008;2022-07-10T07:11:48;3.80;;;1.83;;
3333;SDS011;1679;50.392;8.008;2022-07-10T07:14:14;2.10;;;1.90;;
3333;SDS011;1679;50.392;8.008;2022-07-10T07:16:39;3.20;;;1.70;;
3333;SDS011;1679;50.392;8.008;2022-07-10T07:19:10;2.50;;;1.60;;
3333;SDS011;1679;50.392;8.008;2022-07-10T07:21:40;5.30;;;2.10;;
3333;SDS011;1679;50.392;8.008;2022-07-10T07:24:24;9.80;;;2.07;;
3333;SDS011;1679;50.392;8.008;2022-07-10T07:26:50;2.63;;;1.50;;
3333;SDS011;1679;50.392;8.008;2022-07-10T07:29:16;3.63;;;2.50;;
3333;SDS011;1679;50.392;8.008;2022-07-10T07:31:42;4.93;;;1.50;;
3333;SDS011;1679;50.392;8.008;2022-07-10T07:34:08;2.00;;;1.50;;
3333;SDS011;1679;50.392;8.008;2022-07-10T07:36:34;8.30;;;2.07;;
3333;SDS011;1679;50.392;8.008;2022-07-10T07:39:00;4.13;;;2.40;;
3333;SDS011;1679;50.392;8.008;2022-07-10T07:41:25;3.20;;;2.80;;
3333;SDS011;1679;50.392;8.008;2022-07-10T07:43:51;2.30;;;1.50;;
3333;SDS011;1679;50.392;8.008;2022-07-10T07:46:17;3.10;;;1.87;;
3333;SDS011;1679;50.392;8.008;2022-07-10T07:48:43;3.10;;;1.47;;
3333;SDS011;1679;50.392;8.008;2022-07-10T07:51:09;2.63;;;1.87;;
3333;SDS011;1679;50.392;8.008;2022-07-10T07:53:34;6.30;;;1.73;;
3333;SDS011;1679;50.392;8.008;2022-07-10T07:56:00;5.10;;;1.53;;
3333;SDS011;1679;50.392;8.008;2022-07-10T07:58:26;4.97;;;1.57;;
3333;SDS011;1679;50.392;8.008;2022-07-10T08:00:51;4.97;;;1.60;;
3333;SDS011;1679;50.392;8.008;2022-07-10T08:03:17;4.00;;;1.90;;
3333;SDS011;1679;50.392;8.008;2022-07-10T08:05:43;2.03;;;1.57;;
3333;SDS011;1679;50.392;8.008;2022-07-10T08:08:08;3.83;;;1.90;;
3333;SDS011;1679;50.392;8.008;2022-07-10T08:10:35;3.90;;;1.67;;
3333;SDS011;1679;50.392;8.008;2022-07-10T08:13:02;2.33;;;1.43;;
3333;SDS011;1679;50.392;8.008;2022-07-10T08:15:28;4.70;;;1.63;;
3333;SDS011;1679;50.392;8.008;2022-07-10T08:17:55;5.50;;;1.50;;
3333;SDS011;1679;50.392;8.008;2022-07-10T08:20:22;4.77;;;2.17;;
3333;SDS011;1679;50.392;8.008;2022-07-10T08:22:49;2.57;;;1.50;;
3333;SDS011;1679;50.392;8.008;2022-07-10T08:25:16;6.73;;;1.67;;
3333;SDS011;1679;50.392;8.008;2022-07-10T08:27:41;2.20;;;2.00;;
3333;SDS011;1679;50.392;8.008;2022-07-10T08:30:07;2.47;;;1.87;;
3333;SDS011;1679;50.392;8.008;2022-07-10T08:32:34;3.27;;;1.67;;
3333;SDS011;1679;50.392;8.008;2022-07-10T08:35:01;2.73;;;1.57;;
3333;SDS011;1679;50.392;8.008;2022-07-10T08:37:27;2.20;;;1.73;;
3333;SDS011;1679;50.392;8.008;2022-07-10T08:39:53;3.40;;;1.60;;
3333;SDS011;1679;50.392;8.008;2022-07-10T08:42:19;3.23;;;1.57;;
3333;SDS011;1679;50.392;8.008;2022-07-10T08:44:46;2.57;;;1.30;;
3333;SDS011;1679;50.392;8.008;2022-07-10T08:47:12;1.77;;;1.27;;
3333;SDS011;1679;50.392;8.008;2022-07-10T08:49:38;2.20;;;1.57;;
3333;SDS011;1679;50.392;8.008;2022-07-10T08:52:13;4.30;;;1.57;;
3333;SDS011;1679;50.392;8.008;2022-07-10T08:54:55;2.77;;;1.70;;
3333;SDS011;1679;50.392;8.008;2022-07-10T08:57:22;3.60;;;1.10;;
3333;SDS011;1679;50.392;8.008;2022-07-10T08:59:48;3.20;;;1.63;;
3333;SDS011;1679;50.392;8.008;2022-07-10T09:02:14;3.50;;;1.97;;
3333;SDS011;1679;50.392;8.008;2022-07-10T09:04:39;2.97;;;1.20;;
3333;SDS011;1679;50.392;8.008;2022-07-10T09:07:05;1.70;;;1.43;;
3333;SDS011;1679;50.392;8.008;2022-07-10T09:09:31;2.60;;;1.20;;
3333;SDS011;1679;50.392;8.008;2022-07-10T09:11:56;8.53;;;1.73;;
3333;SDS011;1679;50.392;8.008;2022-07-10T09:14:23;2.67;;;1.20;;
3333;SDS011;1679;50.392;8.008;2022-07-10T09:16:52;1.30;;;1.07;;
3333;SDS011;1679;50.392;8.008;2022-07-10T09:19:19;1.90;;;1.60;;
3333;SDS011;1679;50.392;8.008;2022-07-10T09:22:05;2.17;;;1.50;;
3333;SDS011;1679;50.392;8.008;2022-07-10T09:24:39;2.60;;;1.60;;
3333;SDS011;1679;50.392;8.008;2022-07-10T09:27:07;1.83;;;1.17;;
3333;SDS011;1679;50.392;8.008;2022-07-10T09:29:44;4.03;;;1.67;;
3333;SDS011;1679;50.392;8.008;2022-07-10T09:32:10;3.17;;;1.67;;
3333;SDS011;1679;50.392;8.008;2022-07-10T09:42:28;2.60;;;1.33;;
3333;SDS011;1679;50.392;8.008;2022-07-10T09:47:40;1.40;;;1.10;;
3333;SDS011;1679;50.392;8.008;2022-07-10T09:50:19;2.83;;;1.00;;
3333;SDS011;1679;50.392;8.008;2022-07-10T09:52:48;2.43;;;1.07;;
3333;SDS011;1679;50.392;8.008;2022-07-10T09:55:16;2.27;;;1.20;;
3333;SDS011;1679;50.392;8.008;2022-07-10T09:57:43;3.87;;;1.13;;
3333;SDS011;1679;50.392;8.008;2022-07-10T10:00:14;4.60;;;1.00;;
3333;SDS011;1679;50.392;8.008;2022-07-10T10:02:40;2.77;;;1.00;;
3333;SDS011;1679;50.392;8.008;2022-07-10T10:05:05;1.43;;;0.93;;
3333;SDS011;1679;50.392;8.008;2022-07-10T10:07:33;1.40;;;0.93;;
3333;SDS011;1679;50.392;8.008;2022-07-10T10:10:02;1.73;;;0.90;;
3333;SDS011;1679;50.392;8.008;2022-07-10T10:12:35;1.47;;;0.70;;
3333;SDS011;1679;50.392;8.008;2022-07-10T10:15:07;3.27;;;0.90;;
3333;SDS011;1679;50.392;8.008;2022-07-10T10:17:35;2.43;;;0.80;;
3333;SDS011;1679;50.392;8.008;2022-07-10T10:20:02;1.77;;;0.90;;
3333;SDS011;1679;50.392;8.008;2022-07-10T10:22:47;5.23;;;1.17;;
3333;SDS011;1679;50.392;8.008;2022-07-10T10:25:14;3.37;;;1.00;;
3333;SDS011;1679;50.392;8.008;2022-07-10T10:27:43;1.10;;;1.00;;
3333;SDS011;1679;50.392;8.008;2022-07-10T10:30:10;2.07;;;1.17;;
3333;SDS011;1679;50.392;8.008;2022-07-10T10:32:39;3.33;;;1.20;;
3333;SDS011;1679;50.392;8.008;2022-07-10T10:35:05;1.87;;;1.20;;
3333;SDS011;1679;50.392;8.008;2022-07-10T10:37:38;3.80;;;1.10;;
3333;SDS011;1679;50.392;8.008;2022-07-10T10:40:06;1.50;;;1.30;;
3333;SDS011;1679;50.392;8.008;2022-07-10T10:48:06;2.83;;;1.30;;
3333;SDS011;1679;50.392;8.008;2022-07-10T10:53:15;3.43;;;1.10;;
3333;SDS011;1679;50.392;8.008;2022-07-10T10:58:44;1.93;;;0.83;;
3333;SDS011;1679;50.392;8.008;2022-07-10T11:09:23;2.37;;;0.93;;
3333;SDS011;1679;50.392;8.008;2022-07-10T11:11:59;6.53;;;0.80;;
3333;SDS011;1679;50.392;8.008;2022-07-10T11:14:35;3.60;;;1.07;;
3333;SDS011;1679;50.392;8.008;2022-07-10T11:17:03;2.47;;;1.00;;
3333;SDS011;1679;50.392;8.008;2022-07-10T11:19:30;2.30;;;1.13;;
3333;SDS011;1679;50.392;8.008;2022-07-10T11:24:40;6.93;;;1.83;;
3333;SDS011;1679;50.392;8.008;2022-07-10T11:30:15;2.03;;;1.10;;
3333;SDS011;1679;50.392;8.008;2022-07-10T11:32:41;1.97;;;1.17;;
3333;SDS011;1679;50.392;8.008;2022-07-10T11:35:07;2.00;;;1.33;;
3333;SDS011;1679;50.392;8.008;2022-07-10T11:37:51;3.73;;;1.10;;
3333;SDS011;1679;50.392;8.008;2022-07-10T11:40:17;3.27;;;1.50;;
3333;SDS011;1679;50.392;8.008;2022-07-10T11:42:54;2.27;;;1.20;;
3333;SDS011;1679;50.392;8.008;2022-07-10T11:47:56;1.27;;;0.97;;
3333;SDS011;1679;50.392;8.008;2022-07-10T11:50:22;2.77;;;1.40;;
3333;SDS011;1679;50.392;8.008;2022-07-10T11:52:49;4.40;;;1.47;;
3333;SDS011;1679;50.392;8.008;2022-07-10T11:55:19;4.10;;;1.40;;
3333;SDS011;1679;50.392;8.008;2022-07-10T11:57:45;1.77;;;1.60;;
3333;SDS011;1679;50.392;8.008;2022-07-10T12:00:22;1.93;;;1.10;;
3333;SDS011;1679;50.392;8.008;2022-07-10T12:02:49;1.13;;;0.93;;
3333;SDS011;1679;50.392;8.008;2022-07-10T12:05:35;1.93;;;1.30;;
3333;SDS011;1679;50.392;8.008;2022-07-10T12:08:02;2.30;;;1.20;;
3333;SDS011;1679;50.392;8.008;2022-07-10T12:10:29;3.10;;;1.23;;
3333;SDS011;1679;50.392;8.008;2022-07-10T12:13:03;1.33;;;0.90;;
3333;SDS011;1679;50.392;8.008;2022-07-10T12:15:38;3.13;;;1.20;;
3333;SDS011;1679;50.392;8.008;2022-07-10T12:18:04;1.30;;;1.00;;
3333;SDS011;1679;50.392;8.008;2022-07-10T12:20:30;2.07;;;1.30;;
3333;SDS011;1679;50.392;8.008;2022-07-10T12:22:57;1.30;;;1.10;;
3333;SDS011;1679;50.392;8.008;2022-07-10T12:25:23;2.30;;;1.40;;
3333;SDS011;1679;50.392;8.008;2022-07-10T12:27:54;3.33;;;1.30;;
3333;SDS011;1679;50.392;8.008;2022-07-10T12:30:21;2.00;;;1.80;;
3333;SDS011;1679;50.392;8.008;2022-07-10T12:32:47;2.23;;;1.40;;
3333;SDS011;1679;50.392;8.008;2022-07-10T12:35:12;2.20;;;1.37;;
3333;SDS011;1679;50.392;8.008;2022-07-10T12:37:49;1.13;;;1.03;;
3333;SDS011;1679;50.392;8.008;2022-07-10T12:40:33;1.63;;;1.10;;
3333;SDS011;1679;50.392;8.008;2022-07-10T12:43:02;1.30;;;1.10;;
3333;SDS011;1679;50.392;8.008;2022-07-10T12:45:29;1.40;;;1.00;;
3333;SDS011;1679;50.392;8.008;2022-07-10T12:47:54;2.00;;;1.10;;
3333;SDS011;1679;50.392;8.008;2022-07-10T12:50:20;1.57;;;0.87;;
3333;SDS011;1679;50.392;8.008;2022-07-10T12:52:48;1.17;;;0.80;;
3333;SDS011;1679;50.392;8.008;2022-07-10T12:55:20;2.23;;;1.00;;
3333;SDS011;1679;50.392;8.008;2022-07-10T12:57:47;1.00;;;0.90;;
3333;SDS011;1679;50.392;8.008;2022-07-10T13:03:09;0.80;;;0.60;;
3333;SDS011;1679;50.392;8.008;2022-07-10T13:05:42;1.10;;;0.80;;
3333;SDS011;1679;50.392;8.008;2022-07-10T13:08:09;1.00;;;0.80;;
3333;SDS011;1679;50.392;8.008;2022-07-10T13:10:44;1.10;;;0.87;;
3333;SDS011;1679;50.392;8.008;2022-07-10T13:13:12;0.90;;;0.70;;
3333;SDS011;1679;50.392;8.008;2022-07-10T13:15:39;0.80;;;0.70;;
3333;SDS011;1679;50.392;8.008;2022-07-10T13:21:00;1.00;;;0.90;;
3333;SDS011;1679;50.392;8.008;2022-07-10T13:23:28;2.17;;;1.07;;
3333;SDS011;1679;50.392;8.008;2022-07-10T13:25:57;1.60;;;1.07;;
3333;SDS011;1679;50.392;8.008;2022-07-10T13:28:26;3.07;;;1.00;;
3333;SDS011;1679;50.392;8.008;2022-07-10T13:30:52;1.60;;;1.13;;
3333;SDS011;1679;50.392;8.008;2022-07-10T13:33:17;2.50;;;1.30;;
3333;SDS011;1679;50.392;8.008;2022-07-10T13:35:43;1.20;;;1.10;;
3333;SDS011;1679;50.392;8.008;2022-07-10T13:38:09;1.30;;;1.20;;
3333;SDS011;1679;50.392;8.008;2022-07-10T13:40:36;1.57;;;1.40;;
3333;SDS011;1679;50.392;8.008;2022-07-10T13:43:03;1.53;;;1.40;;
3333;SDS011;1679;50.392;8.008;2022-07-10T13:45:30;1.67;;;1.57;;
3333;SDS011;1679;50.392;8.008;2022-07-10T13:48:05;1.30;;;1.20;;
3333;SDS011;1679;50.392;8.008;2022-07-10T13:50:30;1.47;;;1.37;;
3333;SDS011;1679;50.392;8.008;2022-07-10T13:52:57;2.47;;;1.60;;
3333;SDS011;1679;50.392;8.008;2022-07-10T13:55:23;1.70;;;1.60;;
3333;SDS011;1679;50.392;8.008;2022-07-10T13:57:48;3.47;;;1.97;;
3333;SDS011;1679;50.392;8.008;2022-07-10T14:00:14;1.80;;;1.70;;
3333;SDS011;1679;50.392;8.008;2022-07-10T14:02:40;1.50;;;1.40;;
3333;SDS011;1679;50.392;8.008;2022-07-10T14:05:05;1.50;;;1.40;;
3333;SDS011;1679;50.392;8.008;2022-07-10T14:07:33;2.23;;;1.47;;
3333;SDS011;1679;50.392;8.008;2022-07-10T14:09:58;2.03;;;1.93;;
3333;SDS011;1679;50.392;8.008;2022-07-10T14:12:24;2.00;;;1.90;;
3333;SDS011;1679;50.392;8.008;2022-07-10T14:14:49;1.73;;;1.63;;
3333;SDS011;1679;50.392;8.008;2022-07-10T14:17:15;2.20;;;2.10;;
3333;SDS011;1679;50.392;8.008;2022-07-10T14:19:41;1.93;;;1.83;;
3333;SDS011;1679;50.392;8.008;2022-07-10T14:22:07;2.30;;;2.20;;
3333;SDS011;1679;50.392;8.008;2022-07-10T14:24:33;2.90;;;2.17;;
3333;SDS011;1679;50.392;8.008;2022-07-10T14:26:58;2.13;;;2.03;;
3333;SDS011;1679;50.392;8.008;2022-07-10T14:29:24;2.53;;;2.33;;
3333;SDS011;1679;50.392;8.008;2022-07-10T14:31:50;2.07;;;1.97;;
3333;SDS011;1679;50.392;8.008;2022-07-10T14:34:16;2.90;;;2.70;;
3333;SDS011;1679;50.392;8.008;2022-07-10T14:36:45;3.07;;;2.87;;
3333;SDS011;1679;50.392;8.008;2022-07-10T14:39:10;2.57;;;2.10;;
3333;SDS011;1679;50.392;8.008;2022-07-10T14:41:39;2.73;;;2.60;;
3333;SDS011;1679;50.392;8.008;2022-07-10T14:44:05;3.00;;;2.80;;
3333;SDS011;1679;50.392;8.008;2022-07-10T14:46:31;2.77;;;2.67;;
3333;SDS011;1679;50.392;8.008;2022-07-10T14:48:57;2.83;;;2.73;;
3333;SDS011;1679;50.392;8.008;2022-07-10T14:51:22;3.50;;;3.20;;
3333;SDS011;1679;50.392;8.008;2022-07-10T14:53:48;3.53;;;3.33;;
3333;SDS011;1679;50.392;8.008;2022-07-10T14:56:14;3.83;;;3.57;;
3333;SDS011;1679;50.392;8.008;2022-07-10T14:58:44;3.50;;;3.30;;
3333;SDS011;1679;50.392;8.008;2022-07-10T15:01:10;4.20;;;3.90;;
3333;SDS011;1679;50.392;8.008;2022-07-10T15:03:36;3.83;;;3.63;;
3333;SDS011;1679;50.392;8.008;2022-07-10T15:06:01;4.80;;;4.50;;
3333;SDS011;1679;50.392;8.008;2022-07-10T15:08:27;4.40;;;4.10;;
3333;SDS011;1679;50.392;8.008;2022-07-10T15:10:52;3.80;;;3.60;;
3333;SDS011;1679;50.392;8.008;2022-07-10T15:13:18;5.30;;;4.90;;
3333;SDS011;1679;50.392;8.008;2022-07-10T15:15:47;4.83;;;4.43;;
3333;SDS011;1679;50.392;8.008;2022-07-10T15:18:15;7.67;;;7.03;;
3333;SDS011;1679;50.392;8.008;2022-07-10T15:20:40;13.13;;;11.83;;
3333;SDS011;1679;50.392;8.008;2022-07-10T15:23:06;19.50;;;17.60;;
3333;SDS011;1679;50.392;8.008;2022-07-10T15:25:31;8.20;;;6.40;;
3333;SDS011;1679;50.392;8.008;2022-07-10T15:27:57;6.07;;;5.67;;
3333;SDS011;1679;50.392;8.008;2022-07-10T15:30:22;5.60;;;5.10;;
3333;SDS011;1679;50.392;8.008;2022-07-10T15:32:48;5.50;;;5.20;;
3333;SDS011;1679;50.392;8.008;2022-07-10T15:35:13;5.10;;;4.80;;
3333;SDS011;1679;50.392;8.008;2022-07-10T15:37:39;6.43;;;5.93;;
3333;SDS011;1679;50.392;8.008;2022-07-10T15:40:05;6.17;;;5.60;;
3333;SDS011;1679;50.392;8.008;2022-07-10T15:42:31;6.07;;;5.63;;
3333;SDS011;1679;50.392;8.008;2022-07-10T15:44:57;6.13;;;5.73;;
3333;SDS011;1679;50.392;8.008;2022-07-10T15:47:22;5.80;;;5.50;;
3333;SDS011;1679;50.392;8.008;2022-07-10T15:49:48;5.97;;;5.50;;
3333;SDS011;1679;50.392;8.008;2022-07-10T15:52:14;6.37;;;5.87;;
3333;SDS011;1679;50.392;8.008;2022-07-10T15:54:39;5.83;;;5.23;;
3333;SDS011;1679;50.392;8.008;2022-07-10T15:57:06;5.90;;;5.40;;